sensor_id;sensor_type;location;lat;lon;timestamp;temperature;humidity
67157;SHT31;54086;50.126;8.710;2023-07-16T00:01:44;20.37;93.98
67157;SHT31;54086;50.126;8.710;2023-07-16T00:04:09;20.34;94.30
67157;SHT31;54086;50.126;8.710;2023-07-16T00:06:34;20.28;94.99
67157;SHT31;54086;50.126;8.710;2023-07-16T00:09:00;20.34;94.62
67157;SHT31;54086;50.126;8.710;2023-07-16T00:11:25;20.36;94.84
67157;SHT31;54086;50.126;8.710;2023-07-16T00:13:51;20.22;95.47
67157;SHT31;54086;50.126;8.710;2023-07-16T00:16:17;20.18;95.30
67157;SHT31;54086;50.126;8.710;2023-07-16T00:18:44;20.18;95.80
67157;SHT31;54086;50.126;8.710;2023-07-16T00:21:10;20.12;95.75
67157;SHT31;54086;50.126;8.710;2023-07-16T00:23:36;20.13;96.08
67157;SHT31;54086;50.126;8.710;2023-07-16T00:26:01;20.09;96.24
67157;SHT31;54086;50.126;8.710;2023-07-16T00:28:26;19.99;95.85
67157;SHT31;54086;50.126;8.710;2023-07-16T00:30:52;20.02;95.61
67157;SHT31;54086;50.126;8.710;2023-07-16T00:33:17;19.98;95.22
67157;SHT31;54086;50.126;8.710;2023-07-16T00:35:47;20.01;94.19
67157;SHT31;54086;50.126;8.710;2023-07-16T00:38:14;19.99;94.52
67157;SHT31;54086;50.126;8.710;2023-07-16T00:40:39;20.05;93.89
67157;SHT31;54086;50.126;8.710;2023-07-16T00:43:04;19.96;93.88
67157;SHT31;54086;50.126;8.710;2023-07-16T00:45:30;20.12;93.79
67157;SHT31;54086;50.126;8.710;2023-07-16T00:47:56;20.01;94.23
67157;SHT31;54086;50.126;8.710;2023-07-16T00:50:22;19.95;94.23
67157;SHT31;54086;50.126;8.710;2023-07-16T00:52:47;19.96;94.23
67157;SHT31;54086;50.126;8.710;2023-07-16T00:55:13;19.93;94.20
67157;SHT31;54086;50.126;8.710;2023-07-16T00:57:38;19.89;94.19
67157;SHT31;54086;50.126;8.710;2023-07-16T01:00:05;20.16;93.49
67157;SHT31;54086;50.126;8.710;2023-07-16T01:02:31;19.95;94.05
67157;SHT31;54086;50.126;8.710;2023-07-16T01:04:57;20.04;93.94
67157;SHT31;54086;50.126;8.710;2023-07-16T01:07:24;19.92;94.18
67157;SHT31;54086;50.126;8.710;2023-07-16T01:09:53;19.88;93.73
67157;SHT31;54086;50.126;8.710;2023-07-16T01:12:21;19.85;94.03
67157;SHT31;54086;50.126;8.710;2023-07-16T01:14:47;19.83;93.92
67157;SHT31;54086;50.126;8.710;2023-07-16T01:17:14;19.79;94.03
67157;SHT31;54086;50.126;8.710;2023-07-16T01:19:40;19.83;93.91
67157;SHT31;54086;50.126;8.710;2023-07-16T01:25:05;19.72;94.24
67157;SHT31;54086;50.126;8.710;2023-07-16T01:27:55;19.81;94.31
67157;SHT31;54086;50.126;8.710;2023-07-16T01:30:26;19.75;94.15
67157;SHT31;54086;50.126;8.710;2023-07-16T01:32:53;19.82;94.29
67157;SHT31;54086;50.126;8.710;2023-07-16T01:35:19;19.77;94.45
67157;SHT31;54086;50.126;8.710;2023-07-16T01:37:45;19.65;94.30
67157;SHT31;54086;50.126;8.710;2023-07-16T01:40:11;19.71;94.09
67157;SHT31;54086;50.126;8.710;2023-07-16T01:42:37;19.60;94.35
67157;SHT31;54086;50.126;8.710;2023-07-16T01:45:03;19.61;94.58
67157;SHT31;54086;50.126;8.710;2023-07-16T01:49:55;19.57;94.01
67157;SHT31;54086;50.126;8.710;2023-07-16T01:52:21;19.55;93.84
67157;SHT31;54086;50.126;8.710;2023-07-16T01:54:47;19.49;94.21
67157;SHT31;54086;50.126;8.710;2023-07-16T01:57:12;19.47;93.43
67157;SHT31;54086;50.126;8.710;2023-07-16T01:59:38;19.41;93.45
67157;SHT31;54086;50.126;8.710;2023-07-16T02:02:04;19.38;93.75
67157;SHT31;54086;50.126;8.710;2023-07-16T02:04:30;19.37;93.68
67157;SHT31;54086;50.126;8.710;2023-07-16T02:06:55;19.33;93.64
67157;SHT31;54086;50.126;8.710;2023-07-16T02:09:22;19.37;93.56
67157;SHT31;54086;50.126;8.710;2023-07-16T02:11:48;19.31;93.71
67157;SHT31;54086;50.126;8.710;2023-07-16T02:14:13;19.24;93.94
67157;SHT31;54086;50.126;8.710;2023-07-16T02:16:40;19.19;93.98
67157;SHT31;54086;50.126;8.710;2023-07-16T02:19:05;19.16;94.12
67157;SHT31;54086;50.126;8.710;2023-07-16T02:21:31;19.16;93.73
67157;SHT31;54086;50.126;8.710;2023-07-16T02:23:56;19.17;93.30
67157;SHT31;54086;50.126;8.710;2023-07-16T02:26:22;19.28;92.91
67157;SHT31;54086;50.126;8.710;2023-07-16T02:28:47;19.10;93.09
67157;SHT31;54086;50.126;8.710;2023-07-16T02:31:13;19.04;92.84
67157;SHT31;54086;50.126;8.710;2023-07-16T02:33:38;18.98;93.11
67157;SHT31;54086;50.126;8.710;2023-07-16T02:36:04;18.92;93.04
67157;SHT31;54086;50.126;8.710;2023-07-16T02:38:30;18.93;93.21
67157;SHT31;54086;50.126;8.710;2023-07-16T02:40:56;18.88;93.40
67157;SHT31;54086;50.126;8.710;2023-07-16T02:43:21;18.82;93.40
67157;SHT31;54086;50.126;8.710;2023-07-16T02:45:46;18.82;93.42
67157;SHT31;54086;50.126;8.710;2023-07-16T02:48:12;18.86;93.64
67157;SHT31;54086;50.126;8.710;2023-07-16T02:50:37;18.77;93.53
67157;SHT31;54086;50.126;8.710;2023-07-16T02:53:04;18.72;93.50
67157;SHT31;54086;50.126;8.710;2023-07-16T02:55:29;18.68;93.65
67157;SHT31;54086;50.126;8.710;2023-07-16T02:57:55;18.69;93.51
67157;SHT31;54086;50.126;8.710;2023-07-16T03:00:21;18.65;93.80
67157;SHT31;54086;50.126;8.710;2023-07-16T03:02:46;18.65;93.80
67157;SHT31;54086;50.126;8.710;2023-07-16T03:05:11;18.63;94.07
67157;SHT31;54086;50.126;8.710;2023-07-16T03:07:37;18.58;94.12
67157;SHT31;54086;50.126;8.710;2023-07-16T03:10:02;18.56;94.03
67157;SHT31;54086;50.126;8.710;2023-07-16T03:12:28;18.59;93.86
67157;SHT31;54086;50.126;8.710;2023-07-16T03:14:53;18.53;94.02
67157;SHT31;54086;50.126;8.710;2023-07-16T03:17:20;18.52;94.12
67157;SHT31;54086;50.126;8.710;2023-07-16T03:19:50;18.44;94.23
67157;SHT31;54086;50.126;8.710;2023-07-16T03:22:15;18.51;94.11
67157;SHT31;54086;50.126;8.710;2023-07-16T03:24:41;18.47;94.09
67157;SHT31;54086;50.126;8.710;2023-07-16T03:27:06;18.41;94.22
67157;SHT31;54086;50.126;8.710;2023-07-16T03:29:35;18.38;94.20
67157;SHT31;54086;50.126;8.710;2023-07-16T03:32:02;18.31;94.09
67157;SHT31;54086;50.126;8.710;2023-07-16T03:34:28;18.31;94.20
67157;SHT31;54086;50.126;8.710;2023-07-16T03:36:53;18.32;94.26
67157;SHT31;54086;50.126;8.710;2023-07-16T03:39:18;18.31;94.00
67157;SHT31;54086;50.126;8.710;2023-07-16T03:41:44;18.28;93.94
67157;SHT31;54086;50.126;8.710;2023-07-16T03:44:10;18.28;93.90
67157;SHT31;54086;50.126;8.710;2023-07-16T03:46:36;18.32;93.76
67157;SHT31;54086;50.126;8.710;2023-07-16T03:49:01;18.49;93.00
67157;SHT31;54086;50.126;8.710;2023-07-16T03:51:27;18.31;93.27
67157;SHT31;54086;50.126;8.710;2023-07-16T03:53:52;18.31;93.40
67157;SHT31;54086;50.126;8.710;2023-07-16T03:56:17;18.28;93.31
67157;SHT31;54086;50.126;8.710;2023-07-16T03:58:43;18.35;92.98
67157;SHT31;54086;50.126;8.710;2023-07-16T04:01:09;18.49;92.52
67157;SHT31;54086;50.126;8.710;2023-07-16T04:03:35;18.34;92.63
67157;SHT31;54086;50.126;8.710;2023-07-16T04:06:05;18.24;92.78
67157;SHT31;54086;50.126;8.710;2023-07-16T04:08:31;18.20;93.03
67157;SHT31;54086;50.126;8.710;2023-07-16T04:10:57;18.17;92.95
67157;SHT31;54086;50.126;8.710;2023-07-16T04:13:23;18.17;92.71
67157;SHT31;54086;50.126;8.710;2023-07-16T04:15:48;18.17;92.82
67157;SHT31;54086;50.126;8.710;2023-07-16T04:18:14;18.14;92.73
67157;SHT31;54086;50.126;8.710;2023-07-16T04:20:40;18.13;92.82
67157;SHT31;54086;50.126;8.710;2023-07-16T04:23:06;18.15;92.82
67157;SHT31;54086;50.126;8.710;2023-07-16T04:25:32;18.10;92.62
67157;SHT31;54086;50.126;8.710;2023-07-16T04:27:57;18.15;92.59
67157;SHT31;54086;50.126;8.710;2023-07-16T04:30:23;18.08;92.49
67157;SHT31;54086;50.126;8.710;2023-07-16T04:32:48;18.05;92.55
67157;SHT31;54086;50.126;8.710;2023-07-16T04:35:14;18.05;92.23
67157;SHT31;54086;50.126;8.710;2023-07-16T04:37:39;18.08;92.25
67157;SHT31;54086;50.126;8.710;2023-07-16T04:40:07;18.15;91.89
67157;SHT31;54086;50.126;8.710;2023-07-16T04:42:34;18.14;91.85
67157;SHT31;54086;50.126;8.710;2023-07-16T04:44:59;18.14;91.83
67157;SHT31;54086;50.126;8.710;2023-07-16T04:47:25;18.20;91.62
67157;SHT31;54086;50.126;8.710;2023-07-16T04:49:50;18.38;91.27
67157;SHT31;54086;50.126;8.710;2023-07-16T04:52:15;18.35;91.23
67157;SHT31;54086;50.126;8.710;2023-07-16T04:54:41;18.31;91.03
67157;SHT31;54086;50.126;8.710;2023-07-16T04:57:07;18.25;91.00
67157;SHT31;54086;50.126;8.710;2023-07-16T04:59:33;18.28;90.96
67157;SHT31;54086;50.126;8.710;2023-07-16T05:01:59;18.22;90.86
67157;SHT31;54086;50.126;8.710;2023-07-16T05:04:24;18.24;91.02
67157;SHT31;54086;50.126;8.710;2023-07-16T05:06:51;18.30;90.48
67157;SHT31;54086;50.126;8.710;2023-07-16T05:09:16;18.31;90.53
67157;SHT31;54086;50.126;8.710;2023-07-16T05:11:41;18.34;90.30
67157;SHT31;54086;50.126;8.710;2023-07-16T05:14:07;18.24;90.15
67157;SHT31;54086;50.126;8.710;2023-07-16T05:16:32;18.22;89.82
67157;SHT31;54086;50.126;8.710;2023-07-16T05:18:58;18.25;89.73
67157;SHT31;54086;50.126;8.710;2023-07-16T05:21:23;18.48;89.48
67157;SHT31;54086;50.126;8.710;2023-07-16T05:23:48;18.51;88.58
67157;SHT31;54086;50.126;8.710;2023-07-16T05:26:14;18.49;88.55
67157;SHT31;54086;50.126;8.710;2023-07-16T05:28:39;18.52;88.38
67157;SHT31;54086;50.126;8.710;2023-07-16T05:31:04;18.49;88.33
67157;SHT31;54086;50.126;8.710;2023-07-16T05:33:30;18.65;87.93
67157;SHT31;54086;50.126;8.710;2023-07-16T05:35:56;18.56;87.81
67157;SHT31;54086;50.126;8.710;2023-07-16T05:38:22;18.65;87.55
67157;SHT31;54086;50.126;8.710;2023-07-16T05:40:47;18.66;87.52
67157;SHT31;54086;50.126;8.710;2023-07-16T05:43:13;18.56;87.58
67157;SHT31;54086;50.126;8.710;2023-07-16T05:45:40;18.65;87.68
67157;SHT31;54086;50.126;8.710;2023-07-16T05:48:05;18.73;87.54
67157;SHT31;54086;50.126;8.710;2023-07-16T05:50:30;18.65;86.98
67157;SHT31;54086;50.126;8.710;2023-07-16T05:52:56;18.63;87.62
67157;SHT31;54086;50.126;8.710;2023-07-16T05:55:21;18.69;87.24
67157;SHT31;54086;50.126;8.710;2023-07-16T05:57:46;18.90;87.07
67157;SHT31;54086;50.126;8.710;2023-07-16T06:00:12;18.88;86.62
67157;SHT31;54086;50.126;8.710;2023-07-16T06:02:38;19.09;85.88
67157;SHT31;54086;50.126;8.710;2023-07-16T06:05:05;19.06;85.43
67157;SHT31;54086;50.126;8.710;2023-07-16T06:07:30;19.00;85.44
67157;SHT31;54086;50.126;8.710;2023-07-16T06:09:56;19.10;85.30
67157;SHT31;54086;50.126;8.710;2023-07-16T06:12:22;19.11;85.13
67157;SHT31;54086;50.126;8.710;2023-07-16T06:14:47;19.20;84.63
67157;SHT31;54086;50.126;8.710;2023-07-16T06:17:12;19.23;83.11
67157;SHT31;54086;50.126;8.710;2023-07-16T06:19:38;19.19;83.10
67157;SHT31;54086;50.126;8.710;2023-07-16T06:22:03;19.19;82.77
67157;SHT31;54086;50.126;8.710;2023-07-16T06:24:29;19.17;82.65
67157;SHT31;54086;50.126;8.710;2023-07-16T06:26:54;19.20;82.29
67157;SHT31;54086;50.126;8.710;2023-07-16T06:29:20;19.44;82.16
67157;SHT31;54086;50.126;8.710;2023-07-16T06:31:55;19.65;81.17
67157;SHT31;54086;50.126;8.710;2023-07-16T06:34:21;19.54;80.89
67157;SHT31;54086;50.126;8.710;2023-07-16T06:36:47;19.53;80.53
67157;SHT31;54086;50.126;8.710;2023-07-16T06:39:12;19.51;80.36
67157;SHT31;54086;50.126;8.710;2023-07-16T06:41:38;19.47;80.23
67157;SHT31;54086;50.126;8.710;2023-07-16T06:44:03;19.54;79.90
67157;SHT31;54086;50.126;8.710;2023-07-16T06:46:28;19.54;79.13
67157;SHT31;54086;50.126;8.710;2023-07-16T06:48:54;19.51;78.88
67157;SHT31;54086;50.126;8.710;2023-07-16T06:51:19;19.75;78.64
67157;SHT31;54086;50.126;8.710;2023-07-16T06:53:45;19.72;78.20
67157;SHT31;54086;50.126;8.710;2023-07-16T06:56:11;19.70;77.92
67157;SHT31;54086;50.126;8.710;2023-07-16T06:58:36;19.81;78.10
67157;SHT31;54086;50.126;8.710;2023-07-16T07:01:02;19.92;77.83
67157;SHT31;54086;50.126;8.710;2023-07-16T07:03:27;20.10;77.46
67157;SHT31;54086;50.126;8.710;2023-07-16T07:05:53;20.41;77.01
67157;SHT31;54086;50.126;8.710;2023-07-16T07:08:18;20.37;76.21
67157;SHT31;54086;50.126;8.710;2023-07-16T07:10:43;20.30;75.41
67157;SHT31;54086;50.126;8.710;2023-07-16T07:13:09;20.41;75.45
67157;SHT31;54086;50.126;8.710;2023-07-16T07:15:35;20.19;74.68
67157;SHT31;54086;50.126;8.710;2023-07-16T07:18:00;20.10;74.91
67157;SHT31;54086;50.126;8.710;2023-07-16T07:20:25;20.08;75.33
67157;SHT31;54086;50.126;8.710;2023-07-16T07:22:51;20.40;73.78
67157;SHT31;54086;50.126;8.710;2023-07-16T07:25:16;20.85;73.30
67157;SHT31;54086;50.126;8.710;2023-07-16T07:27:42;21.05;72.57
67157;SHT31;54086;50.126;8.710;2023-07-16T07:30:08;20.71;71.46
67157;SHT31;54086;50.126;8.710;2023-07-16T07:32:37;20.66;71.83
67157;SHT31;54086;50.126;8.710;2023-07-16T07:35:02;20.84;71.29
67157;SHT31;54086;50.126;8.710;2023-07-16T07:37:28;21.01;70.86
67157;SHT31;54086;50.126;8.710;2023-07-16T07:39:58;20.80;71.38
67157;SHT31;54086;50.126;8.710;2023-07-16T07:42:24;21.12;71.18
67157;SHT31;54086;50.126;8.710;2023-07-16T07:44:50;21.25;70.22
67157;SHT31;54086;50.126;8.710;2023-07-16T07:47:16;21.35;69.68
67157;SHT31;54086;50.126;8.710;2023-07-16T07:49:41;21.58;69.96
67157;SHT31;54086;50.126;8.710;2023-07-16T07:52:07;21.59;69.12
67157;SHT31;54086;50.126;8.710;2023-07-16T07:54:33;21.31;69.11
67157;SHT31;54086;50.126;8.710;2023-07-16T07:57:01;21.32;68.76
67157;SHT31;54086;50.126;8.710;2023-07-16T07:59:30;21.70;68.07
67157;SHT31;54086;50.126;8.710;2023-07-16T08:01:59;21.18;68.17
67157;SHT31;54086;50.126;8.710;2023-07-16T08:04:27;21.22;68.15
67157;SHT31;54086;50.126;8.710;2023-07-16T08:06:53;21.02;67.77
67157;SHT31;54086;50.126;8.710;2023-07-16T08:09:20;21.14;67.10
67157;SHT31;54086;50.126;8.710;2023-07-16T08:11:45;21.17;67.56
67157;SHT31;54086;50.126;8.710;2023-07-16T08:14:11;21.39;67.48
67157;SHT31;54086;50.126;8.710;2023-07-16T08:16:37;21.41;66.54
67157;SHT31;54086;50.126;8.710;2023-07-16T08:19:03;21.22;66.27
67157;SHT31;54086;50.126;8.710;2023-07-16T08:21:29;21.37;66.24
67157;SHT31;54086;50.126;8.710;2023-07-16T08:23:55;21.69;65.14
67157;SHT31;54086;50.126;8.710;2023-07-16T08:26:20;21.63;64.08
67157;SHT31;54086;50.126;8.710;2023-07-16T08:28:46;21.52;64.36
67157;SHT31;54086;50.126;8.710;2023-07-16T08:31:12;21.37;65.33
67157;SHT31;54086;50.126;8.710;2023-07-16T08:33:40;21.55;64.40
67157;SHT31;54086;50.126;8.710;2023-07-16T08:36:06;21.59;64.22
67157;SHT31;54086;50.126;8.710;2023-07-16T08:38:32;21.55;64.31
67157;SHT31;54086;50.126;8.710;2023-07-16T08:41:01;21.46;63.98
67157;SHT31;54086;50.126;8.710;2023-07-16T08:43:28;21.45;62.59
67157;SHT31;54086;50.126;8.710;2023-07-16T08:45:54;21.79;62.44
67157;SHT31;54086;50.126;8.710;2023-07-16T08:48:21;22.00;62.01
67157;SHT31;54086;50.126;8.710;2023-07-16T08:50:48;21.93;62.80
67157;SHT31;54086;50.126;8.710;2023-07-16T08:53:15;22.34;62.17
67157;SHT31;54086;50.126;8.710;2023-07-16T08:55:43;22.43;62.26
67157;SHT31;54086;50.126;8.710;2023-07-16T08:58:09;23.02;60.65
67157;SHT31;54086;50.126;8.710;2023-07-16T09:00:35;23.39;59.96
67157;SHT31;54086;50.126;8.710;2023-07-16T09:03:01;23.49;58.65
67157;SHT31;54086;50.126;8.710;2023-07-16T09:05:29;23.39;58.49
67157;SHT31;54086;50.126;8.710;2023-07-16T09:07:54;22.76;60.62
67157;SHT31;54086;50.126;8.710;2023-07-16T09:10:20;22.79;60.20
67157;SHT31;54086;50.126;8.710;2023-07-16T09:12:46;22.59;59.84
67157;SHT31;54086;50.126;8.710;2023-07-16T09:15:17;23.40;58.24
67157;SHT31;54086;50.126;8.710;2023-07-16T09:17:47;23.26;58.38
67157;SHT31;54086;50.126;8.710;2023-07-16T09:20:15;22.75;58.86
67157;SHT31;54086;50.126;8.710;2023-07-16T09:22:41;23.20;57.68
67157;SHT31;54086;50.126;8.710;2023-07-16T09:25:07;23.67;56.78
67157;SHT31;54086;50.126;8.710;2023-07-16T09:27:32;23.85;56.35
67157;SHT31;54086;50.126;8.710;2023-07-16T09:29:58;23.43;57.06
67157;SHT31;54086;50.126;8.710;2023-07-16T09:34:59;23.47;57.26
67157;SHT31;54086;50.126;8.710;2023-07-16T09:37:24;23.26;57.64
67157;SHT31;54086;50.126;8.710;2023-07-16T09:39:51;23.70;57.86
67157;SHT31;54086;50.126;8.710;2023-07-16T09:42:17;22.98;58.74
67157;SHT31;54086;50.126;8.710;2023-07-16T09:44:44;22.79;58.97
67157;SHT31;54086;50.126;8.710;2023-07-16T09:47:09;23.39;58.13
67157;SHT31;54086;50.126;8.710;2023-07-16T09:49:35;23.75;56.44
67157;SHT31;54086;50.126;8.710;2023-07-16T09:52:02;23.36;56.91
67157;SHT31;54086;50.126;8.710;2023-07-16T09:54:31;22.57;58.19
67157;SHT31;54086;50.126;8.710;2023-07-16T09:56:58;23.51;57.51
67157;SHT31;54086;50.126;8.710;2023-07-16T09:59:27;24.29;56.00
67157;SHT31;54086;50.126;8.710;2023-07-16T10:01:55;23.98;55.63
67157;SHT31;54086;50.126;8.710;2023-07-16T10:04:22;23.53;56.55
67157;SHT31;54086;50.126;8.710;2023-07-16T10:06:55;23.78;56.97
67157;SHT31;54086;50.126;8.710;2023-07-16T10:09:41;24.06;55.81
67157;SHT31;54086;50.126;8.710;2023-07-16T10:12:13;24.01;55.65
67157;SHT31;54086;50.126;8.710;2023-07-16T10:14:47;24.48;55.25
67157;SHT31;54086;50.126;8.710;2023-07-16T10:17:14;23.95;53.91
67157;SHT31;54086;50.126;8.710;2023-07-16T10:20:00;24.76;53.10
67157;SHT31;54086;50.126;8.710;2023-07-16T10:22:34;25.15;53.13
67157;SHT31;54086;50.126;8.710;2023-07-16T10:25:01;25.41;51.10
67157;SHT31;54086;50.126;8.710;2023-07-16T10:27:31;24.69;52.27
67157;SHT31;54086;50.126;8.710;2023-07-16T10:29:58;24.24;53.88
67157;SHT31;54086;50.126;8.710;2023-07-16T10:32:28;24.69;53.01
67157;SHT31;54086;50.126;8.710;2023-07-16T10:34:55;24.46;53.38
67157;SHT31;54086;50.126;8.710;2023-07-16T10:37:20;24.62;53.20
67157;SHT31;54086;50.126;8.710;2023-07-16T10:39:50;24.66;53.52
67157;SHT31;54086;50.126;8.710;2023-07-16T10:42:16;24.42;54.01
67157;SHT31;54086;50.126;8.710;2023-07-16T10:44:43;23.64;54.85
67157;SHT31;54086;50.126;8.710;2023-07-16T10:47:09;24.57;53.84
67157;SHT31;54086;50.126;8.710;2023-07-16T10:49:35;24.37;53.77
67157;SHT31;54086;50.126;8.710;2023-07-16T10:52:01;25.18;51.98
67157;SHT31;54086;50.126;8.710;2023-07-16T10:54:27;25.07;52.20
67157;SHT31;54086;50.126;8.710;2023-07-16T10:56:52;25.01;51.40
67157;SHT31;54086;50.126;8.710;2023-07-16T10:59:18;25.28;51.17
67157;SHT31;54086;50.126;8.710;2023-07-16T11:01:44;26.04;49.77
67157;SHT31;54086;50.126;8.710;2023-07-16T11:04:10;26.20;49.59
67157;SHT31;54086;50.126;8.710;2023-07-16T11:06:35;25.03;52.39
67157;SHT31;54086;50.126;8.710;2023-07-16T11:09:11;24.72;52.42
67157;SHT31;54086;50.126;8.710;2023-07-16T11:11:37;25.10;51.18
67157;SHT31;54086;50.126;8.710;2023-07-16T11:14:08;24.94;51.11
67157;SHT31;54086;50.126;8.710;2023-07-16T11:16:37;24.98;51.61
67157;SHT31;54086;50.126;8.710;2023-07-16T11:19:06;25.13;51.53
67157;SHT31;54086;50.126;8.710;2023-07-16T11:21:36;24.62;52.24
67157;SHT31;54086;50.126;8.710;2023-07-16T11:24:14;24.32;52.58
67157;SHT31;54086;50.126;8.710;2023-07-16T11:26:50;25.04;50.79
67157;SHT31;54086;50.126;8.710;2023-07-16T11:29:16;24.67;51.03
67157;SHT31;54086;50.126;8.710;2023-07-16T11:31:41;24.36;51.33
67157;SHT31;54086;50.126;8.710;2023-07-16T11:34:07;25.28;49.91
67157;SHT31;54086;50.126;8.710;2023-07-16T11:36:33;25.94;48.58
67157;SHT31;54086;50.126;8.710;2023-07-16T11:38:59;26.17;48.86
67157;SHT31;54086;50.126;8.710;2023-07-16T11:41:24;26.06;48.63
67157;SHT31;54086;50.126;8.710;2023-07-16T11:43:50;26.61;48.60
67157;SHT31;54086;50.126;8.710;2023-07-16T11:46:16;26.22;48.19
67157;SHT31;54086;50.126;8.710;2023-07-16T11:48:42;25.96;48.01
67157;SHT31;54086;50.126;8.710;2023-07-16T11:51:08;25.42;48.91
67157;SHT31;54086;50.126;8.710;2023-07-16T11:53:37;26.20;47.74
67157;SHT31;54086;50.126;8.710;2023-07-16T11:56:02;27.50;46.22
67157;SHT31;54086;50.126;8.710;2023-07-16T11:58:27;27.02;46.62
67157;SHT31;54086;50.126;8.710;2023-07-16T12:00:53;26.99;47.12
67157;SHT31;54086;50.126;8.710;2023-07-16T12:03:18;27.05;46.35
67157;SHT31;54086;50.126;8.710;2023-07-16T12:05:44;26.52;46.95
67157;SHT31;54086;50.126;8.710;2023-07-16T12:08:09;26.20;46.28
67157;SHT31;54086;50.126;8.710;2023-07-16T12:10:40;27.16;44.63
67157;SHT31;54086;50.126;8.710;2023-07-16T12:13:05;27.01;46.24
67157;SHT31;54086;50.126;8.710;2023-07-16T12:15:30;28.11;45.20
67157;SHT31;54086;50.126;8.710;2023-07-16T12:17:56;28.83;43.79
67157;SHT31;54086;50.126;8.710;2023-07-16T12:20:21;28.01;44.68
67157;SHT31;54086;50.126;8.710;2023-07-16T12:22:47;26.65;46.27
67157;SHT31;54086;50.126;8.710;2023-07-16T12:25:12;26.43;47.38
67157;SHT31;54086;50.126;8.710;2023-07-16T12:27:38;27.87;45.09
67157;SHT31;54086;50.126;8.710;2023-07-16T12:30:03;27.71;43.36
67157;SHT31;54086;50.126;8.710;2023-07-16T12:32:29;28.29;43.14
67157;SHT31;54086;50.126;8.710;2023-07-16T12:34:54;28.80;43.29
67157;SHT31;54086;50.126;8.710;2023-07-16T12:37:21;26.68;45.30
67157;SHT31;54086;50.126;8.710;2023-07-16T12:39:47;27.36;44.32
67157;SHT31;54086;50.126;8.710;2023-07-16T12:42:12;27.20;44.23
67157;SHT31;54086;50.126;8.710;2023-07-16T12:44:38;27.38;43.99
67157;SHT31;54086;50.126;8.710;2023-07-16T12:47:03;29.07;41.58
67157;SHT31;54086;50.126;8.710;2023-07-16T12:49:30;29.16;41.28
67157;SHT31;54086;50.126;8.710;2023-07-16T12:51:55;27.45;43.27
67157;SHT31;54086;50.126;8.710;2023-07-16T12:54:21;27.16;43.85
67157;SHT31;54086;50.126;8.710;2023-07-16T12:56:46;26.91;44.88
67157;SHT31;54086;50.126;8.710;2023-07-16T12:59:11;27.32;44.36
67157;SHT31;54086;50.126;8.710;2023-07-16T13:01:37;28.21;41.44
67157;SHT31;54086;50.126;8.710;2023-07-16T13:04:02;27.69;42.49
67157;SHT31;54086;50.126;8.710;2023-07-16T13:06:28;27.80;43.36
67157;SHT31;54086;50.126;8.710;2023-07-16T13:08:53;28.45;42.50
67157;SHT31;54086;50.126;8.710;2023-07-16T13:11:18;28.38;42.89
67157;SHT31;54086;50.126;8.710;2023-07-16T13:13:44;28.96;41.47
67157;SHT31;54086;50.126;8.710;2023-07-16T13:16:09;29.26;40.59
67157;SHT31;54086;50.126;8.710;2023-07-16T13:18:35;29.89;39.87
67157;SHT31;54086;50.126;8.710;2023-07-16T13:21:00;29.61;40.35
67157;SHT31;54086;50.126;8.710;2023-07-16T13:23:26;28.87;40.99
67157;SHT31;54086;50.126;8.710;2023-07-16T13:25:51;29.10;41.17
67157;SHT31;54086;50.126;8.710;2023-07-16T13:28:18;27.81;42.25
67157;SHT31;54086;50.126;8.710;2023-07-16T13:30:43;27.02;43.54
67157;SHT31;54086;50.126;8.710;2023-07-16T13:33:09;27.28;43.34
67157;SHT31;54086;50.126;8.710;2023-07-16T13:35:34;26.95;43.72
67157;SHT31;54086;50.126;8.710;2023-07-16T13:37:59;27.66;43.51
67157;SHT31;54086;50.126;8.710;2023-07-16T13:40:27;27.57;43.44
67157;SHT31;54086;50.126;8.710;2023-07-16T13:42:52;27.57;43.70
67157;SHT31;54086;50.126;8.710;2023-07-16T13:45:18;28.10;42.67
67157;SHT31;54086;50.126;8.710;2023-07-16T13:47:44;27.46;43.47
67157;SHT31;54086;50.126;8.710;2023-07-16T13:50:10;26.54;44.93
67157;SHT31;54086;50.126;8.710;2023-07-16T13:52:36;26.64;44.95
67157;SHT31;54086;50.126;8.710;2023-07-16T13:55:01;25.99;45.32
67157;SHT31;54086;50.126;8.710;2023-07-16T13:57:29;26.10;45.75
67157;SHT31;54086;50.126;8.710;2023-07-16T13:59:55;27.64;43.61
67157;SHT31;54086;50.126;8.710;2023-07-16T14:02:20;28.62;41.96
67157;SHT31;54086;50.126;8.710;2023-07-16T14:04:46;28.55;41.88
67157;SHT31;54086;50.126;8.710;2023-07-16T14:07:12;28.42;42.27
67157;SHT31;54086;50.126;8.710;2023-07-16T14:09:38;27.93;43.02
67157;SHT31;54086;50.126;8.710;2023-07-16T14:12:03;27.79;43.23
67157;SHT31;54086;50.126;8.710;2023-07-16T14:14:29;28.35;42.58
67157;SHT31;54086;50.126;8.710;2023-07-16T14:16:54;27.96;43.15
67157;SHT31;54086;50.126;8.710;2023-07-16T14:19:21;28.29;42.58
67157;SHT31;54086;50.126;8.710;2023-07-16T14:21:46;27.98;42.44
67157;SHT31;54086;50.126;8.710;2023-07-16T14:24:11;28.17;42.32
67157;SHT31;54086;50.126;8.710;2023-07-16T14:26:37;27.22;43.94
67157;SHT31;54086;50.126;8.710;2023-07-16T14:29:02;26.41;45.23
67157;SHT31;54086;50.126;8.710;2023-07-16T14:31:28;26.31;45.16
67157;SHT31;54086;50.126;8.710;2023-07-16T14:33:53;26.24;45.38
67157;SHT31;54086;50.126;8.710;2023-07-16T14:36:19;26.62;45.12
67157;SHT31;54086;50.126;8.710;2023-07-16T14:38:44;27.66;43.77
67157;SHT31;54086;50.126;8.710;2023-07-16T14:41:10;27.70;43.44
67157;SHT31;54086;50.126;8.710;2023-07-16T14:46:02;27.97;42.83
67157;SHT31;54086;50.126;8.710;2023-07-16T14:48:28;27.90;42.75
67157;SHT31;54086;50.126;8.710;2023-07-16T14:50:54;28.10;42.71
67157;SHT31;54086;50.126;8.710;2023-07-16T14:53:19;27.05;43.87
67157;SHT31;54086;50.126;8.710;2023-07-16T14:55:51;27.40;43.58
67157;SHT31;54086;50.126;8.710;2023-07-16T14:58:18;27.36;43.75
67157;SHT31;54086;50.126;8.710;2023-07-16T15:00:44;27.56;43.41
67157;SHT31;54086;50.126;8.710;2023-07-16T15:03:11;26.26;44.90
67157;SHT31;54086;50.126;8.710;2023-07-16T15:05:38;26.80;44.48
67157;SHT31;54086;50.126;8.710;2023-07-16T15:08:04;27.49;43.61
67157;SHT31;54086;50.126;8.710;2023-07-16T15:10:30;26.98;43.85
67157;SHT31;54086;50.126;8.710;2023-07-16T15:12:55;26.85;44.13
67157;SHT31;54086;50.126;8.710;2023-07-16T15:15:21;27.25;43.94
67157;SHT31;54086;50.126;8.710;2023-07-16T15:17:46;26.77;44.10
67157;SHT31;54086;50.126;8.710;2023-07-16T15:20:12;26.70;44.13
67157;SHT31;54086;50.126;8.710;2023-07-16T15:22:37;27.57;43.04
67157;SHT31;54086;50.126;8.710;2023-07-16T15:25:04;27.90;42.52
67157;SHT31;54086;50.126;8.710;2023-07-16T15:27:30;28.45;41.61
67157;SHT31;54086;50.126;8.710;2023-07-16T15:29:55;28.76;41.18
67157;SHT31;54086;50.126;8.710;2023-07-16T15:32:21;29.09;40.88
67157;SHT31;54086;50.126;8.710;2023-07-16T15:34:46;28.60;41.63